Charter Quote
Worldwide +44-20-3874-8091 Call
Select Language Lang
SAFETY RELIABILITY EXPERIENCE

Kastner Aaf Airport (RJTR) - Jet Charter Services

AIRPORT INFORMATION
ICAORJTR
LOCATIONTokyo, Japan
FACILITY TYPEAIRPORT

At Paramount Business Jets you can hire chartered private jets to and from Kastner Aaf Airport with as little as 4 hours of notice. All flights booked via Paramount Business Jets are operated by certified direct air carriers that meet and exceed the FAA part 135 and 121 protocol or a foreign equivalent safety authority. Furthermore, Paramount Business Jets subscribes to ARGUS for their third party safety checks of operators, aircraft, and crews prior each and every flight to and from Kastner Aaf Airport and worldwide.

  • Quote a trip using Kastner Aaf Airport or call us 24/7 - 365 days a year at +44-20-3874-8091.
Questions? Call +44-20-3874-8091

METAR Weather Data at Kastner Aaf Airport, RJTR

STATIONRJTR
OBSERVEDSat Mar 23, 08:50 UTC
NOWSun Mar 24, 10:43 UTC
AGE25:53 hr ago
WINDSSW at 3 mph
VISIBILITY7 miles
CLOUDSovercast
TEMP39°F (4°C)
DEWPT37°F (3°C)
HUMIDITY93%
BAROMETER1009 hPa (29.81 in Hg)
METARRJTR 230850Z AUTO 20003KT 7SM FEW041 SCT060 OVC070 04/03 A2981 RMK AO2 RAE00RAB33E50 SLP099

Call us on +44-20-3874-8091 (24 Hours) to Hire a Private Jet or Get a Quick Quote.

Find Airports Near any Location

Processing
...